Time;durP1;ratioP1;P1;durP2;ratioP2;P2;SDS_P1;SDS_P2;PMS_P1;PMS_P2;Temp;Humidity;BMP_temperature;BMP_pressure;BME280_temperature;BME280_humidity;BME280_pressure;Samples;Min_cycle;Max_cycle;Signal;HPM_P1;HPM_P2
2022/11/24 00:00:23;;;;;;;10.20;2.47;;;;;;;6.74;100.00;100209.09;5051002;28;20039;-66
2022/11/24 00:02:49;;;;;;;12.23;2.60;;;;;;;6.76;100.00;100215.03;5051321;28;20099;-66
2022/11/24 00:05:14;;;;;;;15.95;3.55;;;;;;;6.76;100.00;100222.19;5051254;28;20024;-66
2022/11/24 00:07:39;;;;;;;9.85;2.22;;;;;;;6.75;100.00;100221.31;5050093;28;20512;-66
2022/11/24 00:10:05;;;;;;;13.55;4.22;;;;;;;6.76;100.00;100230.13;5051042;28;20051;-66
2022/11/24 00:12:31;;;;;;;15.60;3.75;;;;;;;6.70;100.00;100222.91;5051157;28;20479;-66
2022/11/24 00:14:56;;;;;;;6.82;2.40;;;;;;;6.71;100.00;100227.22;5050982;28;20051;-66
2022/11/24 00:17:22;;;;;;;13.32;2.83;;;;;;;6.74;100.00;100232.94;5050990;28;20033;-66
2022/11/24 00:19:47;;;;;;;10.20;2.40;;;;;;;6.70;100.00;100233.50;5050929;28;20037;-66
2022/11/24 00:22:12;;;;;;;14.30;2.67;;;;;;;6.66;100.00;100227.75;5050671;28;20120;-66
2022/11/24 00:24:38;;;;;;;16.05;3.88;;;;;;;6.64;100.00;100239.56;5050818;28;20087;-66
2022/11/24 00:27:03;;;;;;;15.48;2.83;;;;;;;6.59;100.00;100235.63;5050741;28;20039;-66
2022/11/24 00:29:28;;;;;;;13.52;3.97;;;;;;;6.61;100.00;100242.59;5050128;28;20033;-66
2022/11/24 00:31:55;;;;;;;13.80;3.65;;;;;;;6.58;100.00;100241.94;5049800;28;20029;-66
2022/11/24 00:34:21;;;;;;;13.68;3.15;;;;;;;6.57;100.00;100250.06;5050217;28;20024;-66
2022/11/24 00:36:46;;;;;;;13.25;3.20;;;;;;;6.54;100.00;100240.66;5050547;28;20037;-66
2022/11/24 00:39:13;;;;;;;7.68;2.33;;;;;;;6.56;100.00;100251.91;5050593;28;20506;-66
2022/11/24 00:41:39;;;;;;;12.82;3.80;;;;;;;6.58;100.00;100251.72;5050379;28;20116;-66
2022/11/24 00:44:05;;;;;;;6.22;3.13;;;;;;;6.59;100.00;100253.34;5049661;28;20114;-66
2022/11/24 00:46:31;;;;;;;7.38;2.50;;;;;;;6.61;100.00;100253.19;5050092;28;20071;-66
2022/11/24 00:48:56;;;;;;;18.20;3.25;;;;;;;6.62;100.00;100236.25;5050411;28;20033;-66
2022/11/24 00:51:26;;;;;;;6.45;2.55;;;;;;;6.64;100.00;100252.81;5048947;28;20481;-65
2022/11/24 00:53:52;;;;;;;11.88;2.95;;;;;;;6.63;100.00;100246.69;5050237;28;20040;-66
2022/11/24 00:56:17;;;;;;;12.20;2.42;;;;;;;6.59;100.00;100238.28;5050320;28;20029;-66
2022/11/24 00:58:43;;;;;;;10.85;3.05;;;;;;;6.60;100.00;100252.34;5048820;28;20365;-66
2022/11/24 01:01:18;;;;;;;10.55;2.15;;;;;;;6.58;100.00;100254.38;5050117;28;20515;-65
2022/11/24 01:03:45;;;;;;;8.10;2.13;;;;;;;6.55;100.00;100252.09;5049297;28;20029;-66
2022/11/24 01:06:12;;;;;;;11.90;2.67;;;;;;;6.56;100.00;100259.84;5050091;28;20032;-66
2022/11/24 01:08:39;;;;;;;5.82;2.08;;;;;;;6.56;100.00;100265.13;5049786;28;20060;-66
2022/11/24 01:11:18;;;;;;;20.90;4.55;;;;;;;6.56;100.00;100270.44;5049789;28;20033;-66
2022/11/24 01:13:45;;;;;;;16.20;3.28;;;;;;;6.56;100.00;100267.78;5049319;28;20035;-66
2022/11/24 01:16:24;;;;;;;11.85;2.35;;;;;;;6.53;100.00;100273.47;5049784;28;20025;-66
2022/11/24 01:18:50;;;;;;;11.27;2.80;;;;;;;6.52;100.00;100277.13;5048210;28;20037;-66
2022/11/24 01:21:16;;;;;;;9.23;2.75;;;;;;;6.47;100.00;100276.00;5049107;28;20040;-66
2022/11/24 01:23:42;;;;;;;9.05;2.40;;;;;;;6.47;100.00;100282.16;5049267;28;20032;-66
2022/11/24 01:26:10;;;;;;;9.88;2.40;;;;;;;6.45;100.00;100280.69;5049554;28;20116;-66
2022/11/24 01:28:35;;;;;;;11.23;3.42;;;;;;;6.44;100.00;100289.63;5049751;28;20048;-66
2022/11/24 01:31:04;;;;;;;13.25;2.65;;;;;;;6.41;100.00;100287.34;5049421;28;20488;-66
2022/11/24 01:33:30;;;;;;;13.85;3.05;;;;;;;6.41;100.00;100290.00;5049056;28;20021;-66
2022/11/24 01:35:56;;;;;;;13.77;3.78;;;;;;;6.41;100.00;100288.16;5049693;28;20226;-65
2022/11/24 01:38:22;;;;;;;12.88;3.13;;;;;;;6.41;100.00;100287.34;5049237;28;20036;-66
2022/11/24 01:40:47;;;;;;;15.48;2.65;;;;;;;6.39;100.00;100292.00;5049568;28;20036;-66
2022/11/24 01:43:20;;;;;;;15.20;2.42;;;;;;;6.37;100.00;100289.56;5049560;28;20534;-66
2022/11/24 01:45:46;;;;;;;15.63;2.50;;;;;;;6.33;100.00;100291.72;5049240;28;20492;-66
2022/11/24 01:48:27;;;;;;;10.27;3.13;;;;;;;6.31;100.00;100298.22;5049025;28;20023;-65
2022/11/24 01:51:09;;;;;;;19.73;2.38;;;;;;;6.28;100.00;100295.94;5048927;28;20025;-66
2022/11/24 01:53:37;;;;;;;11.82;2.65;;;;;;;6.27;100.00;100311.00;5049130;28;20023;-65
2022/11/24 01:56:03;;;;;;;15.10;3.17;;;;;;;6.25;100.00;100309.53;5049388;28;20029;-66
2022/11/24 01:58:30;;;;;;;10.95;3.05;;;;;;;6.25;100.00;100310.34;5049320;28;20488;-66
2022/11/24 02:00:56;;;;;;;12.48;2.80;;;;;;;6.31;100.00;100314.09;5049217;28;20124;-66
2022/11/24 02:03:28;;;;;;;15.30;2.83;;;;;;;6.35;100.00;100312.75;5049197;28;20714;-66
2022/11/24 02:06:04;;;;;;;12.90;2.72;;;;;;;6.37;100.00;100302.81;5049348;28;20017;-66
2022/11/24 02:08:58;;;;;;;9.32;2.78;;;;;;;6.45;100.00;100313.31;5049052;28;20060;-66
2022/11/24 02:11:28;;;;;;;13.88;2.65;;;;;;;6.47;100.00;100307.81;5048996;28;20103;-66
2022/11/24 02:13:54;;;;;;;16.35;3.53;;;;;;;6.52;100.00;100314.22;5049197;28;20131;-66
2022/11/24 02:16:20;;;;;;;9.43;2.25;;;;;;;6.56;100.00;100319.97;5052476;28;20024;-66
2022/11/24 02:18:46;;;;;;;11.85;3.40;;;;;;;6.54;100.00;100322.78;5053186;28;20412;-66
2022/11/24 02:21:14;;;;;;;8.88;3.03;;;;;;;6.50;100.00;100324.16;5052630;28;20507;-66
2022/11/24 02:23:52;;;;;;;13.90;2.10;;;;;;;6.49;100.00;100325.16;5052557;28;20025;-66
2022/11/24 02:26:40;;;;;;;10.73;2.20;;;;;;;6.48;100.00;100326.16;5052955;28;20419;-66
2022/11/24 02:29:07;;;;;;;14.80;2.90;;;;;;;6.42;100.00;100324.25;5052975;28;20028;-66
2022/11/24 02:31:32;;;;;;;16.73;2.00;;;;;;;6.48;100.00;100334.13;5053099;28;20025;-66
2022/11/24 02:33:58;;;;;;;12.73;3.80;;;;;;;6.47;100.00;100337.78;5052272;28;20608;-66
2022/11/24 02:36:23;;;;;;;16.42;3.80;;;;;;;6.40;100.00;100328.09;5052535;28;20094;-66
2022/11/24 02:38:49;;;;;;;14.10;3.22;;;;;;;6.42;100.00;100339.31;5052611;28;20503;-65
2022/11/24 02:41:19;;;;;;;14.38;3.78;;;;;;;6.39;100.00;100340.50;5052499;28;20033;-66
2022/11/24 02:43:50;;;;;;;13.80;3.28;;;;;;;6.33;100.00;100335.94;5052487;28;20072;-66
2022/11/24 02:46:15;;;;;;;16.80;2.70;;;;;;;6.35;100.00;100345.34;5052756;28;20484;-66
2022/11/24 02:48:41;;;;;;;10.88;2.50;;;;;;;6.29;100.00;100337.31;5052055;28;20090;-66
2022/11/24 02:51:06;;;;;;;11.93;3.67;;;;;;;6.30;100.00;100334.47;5051183;28;20032;-66
2022/11/24 02:53:32;;;;;;;13.40;2.60;;;;;;;6.29;100.00;100335.50;5052477;28;20040;-66
2022/11/24 02:55:57;;;;;;;16.73;3.72;;;;;;;6.27;100.00;100341.97;5052514;28;20037;-65
2022/11/24 02:58:22;;;;;;;15.07;3.08;;;;;;;6.26;100.00;100343.81;5050933;28;20037;-66
2022/11/24 03:00:48;;;;;;;12.52;3.83;;;;;;;6.26;100.00;100337.66;5052434;28;20022;-66
2022/11/24 03:03:13;;;;;;;14.90;4.88;;;;;;;6.32;100.00;100347.53;5052420;28;20029;-66
2022/11/24 03:05:39;;;;;;;12.43;2.80;;;;;;;6.37;100.00;100342.53;5052222;28;20033;-66
2022/11/24 03:08:04;;;;;;;14.02;3.40;;;;;;;6.40;100.00;100346.63;5052102;28;20052;-66
2022/11/24 03:10:29;;;;;;;12.20;3.20;;;;;;;6.44;100.00;100342.59;5052368;28;20473;-66
2022/11/24 03:12:55;;;;;;;14.65;4.63;;;;;;;6.52;100.00;100353.09;5052299;28;20036;-66
2022/11/24 03:15:22;;;;;;;12.63;3.30;;;;;;;6.55;100.00;100356.25;5052258;28;20061;-66
2022/11/24 03:17:48;;;;;;;12.63;3.17;;;;;;;6.65;100.00;100349.81;5052503;28;20484;-66
2022/11/24 03:20:13;;;;;;;9.38;2.63;;;;;;;6.67;100.00;100348.63;5052000;28;20060;-66
2022/11/24 03:22:38;;;;;;;12.75;3.13;;;;;;;6.69;100.00;100351.13;5051764;28;20029;-66
2022/11/24 03:25:04;;;;;;;15.52;2.58;;;;;;;6.71;100.00;100359.72;5052858;28;20029;-66
2022/11/24 03:27:30;;;;;;;22.30;4.43;;;;;;;6.65;100.00;100355.13;5051510;28;20036;-66
2022/11/24 03:29:56;;;;;;;17.10;3.92;;;;;;;6.66;100.00;100359.44;5052191;28;20530;-66
2022/11/24 03:32:21;;;;;;;11.43;3.35;;;;;;;6.64;100.00;100356.13;5051457;28;20029;-66
2022/11/24 03:34:46;;;;;;;17.23;4.57;;;;;;;6.59;100.00;100352.19;5051626;28;20029;-65
2022/11/24 03:37:12;;;;;;;20.08;3.78;;;;;;;6.70;100.00;100366.00;5050848;28;20119;-65
2022/11/24 03:39:37;;;;;;;12.73;2.92;;;;;;;6.78;100.00;100365.91;5051697;28;20094;-66
2022/11/24 03:42:03;;;;;;;10.63;2.65;;;;;;;6.85;100.00;100363.34;5051259;28;20029;-65
2022/11/24 03:44:28;;;;;;;16.27;4.78;;;;;;;6.89;100.00;100376.06;5051479;28;20033;-66
2022/11/24 03:46:53;;;;;;;14.57;4.47;;;;;;;6.90;100.00;100369.75;5051678;28;20075;-66
2022/11/24 03:49:19;;;;;;;13.73;3.92;;;;;;;6.90;100.00;100369.75;5051395;28;20094;-66
2022/11/24 03:51:44;;;;;;;12.98;3.20;;;;;;;6.92;100.00;100370.38;5051296;28;20071;-66
2022/11/24 03:54:09;;;;;;;17.55;3.28;;;;;;;6.95;100.00;100369.19;5051489;28;20032;-66
2022/11/24 03:56:35;;;;;;;9.95;2.72;;;;;;;6.95;100.00;100374.50;5051583;28;20488;-65
2022/11/24 03:59:00;;;;;;;16.23;3.75;;;;;;;6.96;100.00;100371.63;5051420;28;20033;-66
2022/11/24 04:01:25;;;;;;;13.10;3.22;;;;;;;7.01;100.00;100369.25;5051295;28;20032;-66
2022/11/24 04:03:51;;;;;;;17.77;5.07;;;;;;;7.05;100.00;100374.19;5051337;28;20525;-66
2022/11/24 04:06:16;;;;;;;14.93;3.67;;;;;;;7.07;100.00;100378.28;5051392;28;20492;-66
2022/11/24 04:08:41;;;;;;;10.40;2.92;;;;;;;7.07;100.00;100375.66;5051069;28;20504;-66
2022/11/24 04:11:07;;;;;;;13.88;3.03;;;;;;;7.13;100.00;100374.94;5051237;28;20060;-66
2022/11/24 04:13:32;;;;;;;7.85;2.92;;;;;;;7.18;100.00;100379.69;5051179;28;20021;-66
2022/11/24 04:15:57;;;;;;;19.48;3.97;;;;;;;7.21;100.00;100380.13;5050933;28;20135;-66
2022/11/24 04:18:23;;;;;;;19.63;4.32;;;;;;;7.22;100.00;100376.44;5051088;28;20028;-66
2022/11/24 04:20:50;;;;;;;8.77;2.13;;;;;;;7.19;100.00;100378.66;5050842;28;20033;-66
2022/11/24 04:23:15;;;;;;;15.00;3.50;;;;;;;7.18;100.00;100384.97;5050898;28;20077;-66
2022/11/24 04:25:42;;;;;;;14.68;3.78;;;;;;;7.17;100.00;100383.31;5049648;28;20111;-65
2022/11/24 04:28:08;;;;;;;8.90;2.35;;;;;;;7.15;100.00;100399.44;5050347;28;20033;-66
2022/11/24 04:30:34;;;;;;;10.55;2.80;;;;;;;7.15;100.00;100394.13;5050816;28;20044;-66
2022/11/24 04:33:00;;;;;;;16.73;3.33;;;;;;;7.18;100.00;100398.25;5050695;28;20104;-65
2022/11/24 04:35:26;;;;;;;12.75;2.90;;;;;;;7.18;100.00;100409.66;5050591;28;20144;-66
2022/11/24 04:37:51;;;;;;;10.80;3.30;;;;;;;7.25;100.00;100415.84;5050034;28;20029;-66
2022/11/24 04:40:17;;;;;;;9.77;3.55;;;;;;;7.29;100.00;100426.94;5032692;28;20039;-65
2022/11/24 04:42:42;;;;;;;13.48;3.72;;;;;;;7.33;100.00;100446.75;5050599;28;20061;-66
2022/11/24 04:45:09;;;;;;;11.68;3.05;;;;;;;7.34;100.00;100439.66;5050442;28;20489;-66
2022/11/24 04:47:34;;;;;;;10.77;2.85;;;;;;;7.31;100.00;100445.28;5050087;28;20035;-66
2022/11/24 04:50:00;;;;;;;3.80;1.75;;;;;;;7.24;100.00;100439.94;5050314;28;20100;-65
2022/11/24 04:52:25;;;;;;;4.65;1.52;;;;;;;7.16;100.00;100438.19;5049866;28;20120;-66
2022/11/24 04:54:51;;;;;;;5.05;2.10;;;;;;;7.11;100.00;100445.88;5050362;28;20488;-65
2022/11/24 04:57:34;;;;;;;7.03;2.35;;;;;;;7.09;100.00;100447.06;5050307;28;20056;-66
2022/11/24 04:59:59;;;;;;;6.32;2.45;;;;;;;7.04;100.00;100450.25;5050113;28;20037;-66
2022/11/24 05:02:24;;;;;;;5.32;1.67;;;;;;;7.01;100.00;100446.16;5050175;28;20048;-66
2022/11/24 05:04:50;;;;;;;10.80;2.05;;;;;;;6.99;100.00;100450.00;5049460;28;20037;-66
2022/11/24 05:07:17;;;;;;;9.50;2.25;;;;;;;6.93;100.00;100446.25;5049555;28;20083;-66
2022/11/24 05:12:30;;;;;;;9.38;3.85;;;;;;;6.94;100.00;100457.66;5049753;28;20424;-66
2022/11/24 05:15:03;;;;;;;10.13;2.80;;;;;;;6.95;100.00;100456.69;5049843;28;20025;-66
2022/11/24 05:17:30;;;;;;;15.43;2.40;;;;;;;6.94;100.00;100452.38;5049895;28;20087;-65
2022/11/24 05:19:56;;;;;;;11.60;3.80;;;;;;;6.96;100.00;100456.47;5049824;28;20492;-66
2022/11/24 05:22:22;;;;;;;6.35;2.10;;;;;;;6.95;100.00;100461.97;5049534;28;20091;-66
2022/11/24 05:24:47;;;;;;;7.90;1.80;;;;;;;6.95;100.00;100465.44;5049745;28;20059;-66
2022/11/24 05:27:12;;;;;;;9.02;1.98;;;;;;;6.96;100.00;100464.44;5049668;28;20083;-66
2022/11/24 05:29:38;;;;;;;8.77;1.70;;;;;;;6.97;100.00;100471.41;5049540;28;20032;-66
2022/11/24 05:32:03;;;;;;;8.13;1.95;;;;;;;6.98;100.00;100475.69;5049644;28;20025;-66
2022/11/24 05:34:32;;;;;;;9.55;1.77;;;;;;;6.98;100.00;100477.53;5049630;28;20033;-66
2022/11/24 05:37:01;;;;;;;6.43;2.00;;;;;;;6.98;100.00;100480.16;5049876;28;20040;-66
2022/11/24 05:39:28;;;;;;;9.88;2.20;;;;;;;6.98;100.00;100473.03;5048932;28;20044;-66
2022/11/24 05:41:53;;;;;;;9.27;1.80;;;;;;;6.98;100.00;100470.38;5048837;28;20033;-66
2022/11/24 05:44:19;;;;;;;8.65;2.20;;;;;;;6.98;100.00;100482.81;5049559;28;20029;-66
2022/11/24 05:46:44;;;;;;;6.22;2.45;;;;;;;6.96;100.00;100488.28;5048275;28;20083;-66
2022/11/24 05:49:10;;;;;;;5.35;1.60;;;;;;;6.96;100.00;100490.13;5049127;28;20044;-66
2022/11/24 05:51:35;;;;;;;5.82;1.35;;;;;;;6.95;100.00;100499.09;5049415;28;20024;-66
2022/11/24 05:54:01;;;;;;;9.80;2.33;;;;;;;6.93;100.00;100503.75;5048932;28;20388;-65
2022/11/24 05:56:26;;;;;;;3.88;1.73;;;;;;;6.93;100.00;100501.91;5049357;28;20029;-68
2022/11/24 05:58:52;;;;;;;6.50;1.38;;;;;;;6.85;100.00;100496.69;5049301;28;20431;-67
2022/11/24 06:01:17;;;;;;;9.75;1.92;;;;;;;6.92;100.00;100510.88;5049123;28;20056;-66
2022/11/24 06:03:42;;;;;;;5.25;1.85;;;;;;;6.91;100.00;100511.88;5049316;28;20041;-66
2022/11/24 06:06:08;;;;;;;4.78;1.60;;;;;;;6.91;100.00;100516.34;5049328;28;20071;-66
2022/11/24 06:08:33;;;;;;;6.47;2.05;;;;;;;6.90;100.00;100518.19;5049124;28;20064;-66
2022/11/24 06:11:16;;;;;;;6.35;1.92;;;;;;;6.90;100.00;100520.84;5047856;28;20031;-66
2022/11/24 06:13:43;;;;;;;8.68;1.85;;;;;;;6.91;100.00;100532.25;5048921;28;20032;-66
2022/11/24 06:16:09;;;;;;;10.13;2.03;;;;;;;6.91;100.00;100535.72;5048920;28;20036;-66
2022/11/24 06:18:35;;;;;;;10.38;2.70;;;;;;;6.92;100.00;100531.28;5047805;28;20028;-66
2022/11/24 06:21:02;;;;;;;9.45;2.92;;;;;;;6.93;100.00;100527.63;5049025;28;20040;-66
2022/11/24 06:23:27;;;;;;;8.15;2.88;;;;;;;6.97;100.00;100540.34;5048966;28;20465;-67
2022/11/24 06:25:53;;;;;;;9.13;2.33;;;;;;;7.07;100.00;100544.53;5048957;28;20021;-67
2022/11/24 06:28:18;;;;;;;19.85;3.25;;;;;;;7.07;100.00;100549.84;5049084;28;20480;-67
2022/11/24 06:30:44;;;;;;;9.68;2.45;;;;;;;7.11;100.00;100564.41;5049158;28;20082;-67
2022/11/24 06:33:09;;;;;;;10.30;2.55;;;;;;;7.15;100.00;100568.31;5049066;28;20025;-67
2022/11/24 06:35:35;;;;;;;8.98;2.33;;;;;;;7.16;100.00;100577.94;5048703;28;20044;-68
2022/11/24 06:38:00;;;;;;;10.07;2.47;;;;;;;7.17;100.00;100579.56;5047467;28;20036;-67
2022/11/24 06:40:25;;;;;;;12.00;3.05;;;;;;;7.18;100.00;100586.53;5048408;28;20048;-67
2022/11/24 06:42:51;;;;;;;12.52;2.53;;;;;;;7.20;100.00;100588.00;5048166;28;20037;-67
2022/11/24 06:45:17;;;;;;;10.05;1.95;;;;;;;7.19;100.00;100590.84;5048914;28;20033;-67
2022/11/24 06:47:42;;;;;;;9.10;2.13;;;;;;;7.22;100.00;100598.41;5048873;28;20036;-67
2022/11/24 06:50:08;;;;;;;9.20;3.13;;;;;;;7.20;100.00;100598.63;5048989;28;20060;-67
2022/11/24 06:52:33;;;;;;;12.52;3.60;;;;;;;7.20;100.00;100611.88;5048869;28;20046;-67
2022/11/24 06:54:59;;;;;;;7.93;2.78;;;;;;;7.18;100.00;100615.72;5048487;28;20149;-67
2022/11/24 06:57:26;;;;;;;8.77;2.05;;;;;;;7.15;100.00;100622.19;5048505;28;20037;-67
2022/11/24 06:59:51;;;;;;;8.35;2.08;;;;;;;7.16;100.00;100615.88;5048806;28;20047;-67
2022/11/24 07:02:17;;;;;;;10.77;2.30;;;;;;;7.18;100.00;100616.53;5050201;28;20492;-67
2022/11/24 07:04:42;;;;;;;5.80;2.78;;;;;;;7.20;100.00;100643.72;5052315;28;20029;-67
2022/11/24 07:07:07;;;;;;;8.90;2.47;;;;;;;7.20;100.00;100648.16;5052175;28;20057;-67
2022/11/24 07:09:33;;;;;;;11.30;2.50;;;;;;;7.19;100.00;100655.31;5052162;28;20218;-67
2022/11/24 07:11:58;;;;;;;11.73;3.08;;;;;;;7.12;100.00;100649.06;5051607;28;20082;-67
2022/11/24 07:14:23;;;;;;;9.90;2.33;;;;;;;7.14;100.00;100664.81;5052241;28;20033;-67
2022/11/24 07:16:49;;;;;;;8.80;2.17;;;;;;;7.12;100.00;100670.28;5052242;28;20024;-67
2022/11/24 07:19:14;;;;;;;5.60;1.40;;;;;;;7.10;100.00;100680.25;5052187;28;20068;-68
2022/11/24 07:21:39;;;;;;;7.32;1.42;;;;;;;7.05;100.00;100671.16;5052056;28;20033;-66
2022/11/24 07:24:05;;;;;;;4.82;1.55;;;;;;;7.02;100.00;100680.28;5051930;28;20113;-67
2022/11/24 07:26:35;;;;;;;6.72;1.35;;;;;;;7.00;100.00;100699.06;5052090;28;20033;-67
2022/11/24 07:29:01;;;;;;;4.90;1.30;;;;;;;7.00;100.00;100696.41;5051826;28;20063;-67
2022/11/24 07:31:27;;;;;;;5.55;1.20;;;;;;;6.97;100.00;100695.94;5051963;28;20061;-67
2022/11/24 07:33:53;;;;;;;7.05;1.77;;;;;;;7.00;100.00;100708.84;5051907;28;20037;-66
2022/11/24 07:36:19;;;;;;;3.78;1.17;;;;;;;7.01;100.00;100710.47;5051624;28;20037;-67
2022/11/24 07:38:45;;;;;;;7.07;1.40;;;;;;;7.00;100.00;100712.31;5050831;28;20411;-67
2022/11/24 07:41:12;;;;;;;3.28;1.38;;;;;;;6.98;100.00;100719.59;5051704;28;20468;-68
2022/11/24 07:43:38;;;;;;;6.93;1.60;;;;;;;7.00;100.00;100716.78;5050947;28;20143;-67
2022/11/24 07:46:06;;;;;;;3.33;0.93;;;;;;;7.03;100.00;100721.75;5051173;28;20083;-67
2022/11/24 07:48:31;;;;;;;8.52;1.40;;;;;;;6.98;100.00;100714.31;5051420;28;20051;-67
2022/11/24 07:51:00;;;;;;;4.25;1.58;;;;;;;6.99;100.00;100731.84;5051582;28;20044;-67
2022/11/24 07:53:26;;;;;;;5.63;1.65;;;;;;;6.95;100.00;100735.88;5051347;28;20537;-67
2022/11/24 07:55:58;;;;;;;7.05;2.05;;;;;;;6.96;100.00;100739.34;5051388;28;20044;-67
2022/11/24 07:58:23;;;;;;;2.88;0.90;;;;;;;6.93;100.00;100745.00;5050776;28;20506;-67
2022/11/24 08:00:49;;;;;;;5.88;1.30;;;;;;;6.95;100.00;100756.25;5049950;28;20067;-67
2022/11/24 08:03:15;;;;;;;10.50;1.60;;;;;;;6.97;100.00;100748.97;5051466;28;20468;-67
2022/11/24 08:05:40;;;;;;;5.65;1.45;;;;;;;6.98;100.00;100742.66;5051141;28;20082;-67
2022/11/24 08:08:05;;;;;;;5.28;1.70;;;;;;;6.94;100.00;100758.09;5050917;28;20056;-67
2022/11/24 08:10:31;;;;;;;4.95;1.27;;;;;;;6.89;100.00;100755.16;5051175;28;20198;-67
2022/11/24 08:13:00;;;;;;;4.25;1.45;;;;;;;6.83;100.00;100755.81;5050871;28;20494;-67
2022/11/24 08:15:26;;;;;;;8.15;1.90;;;;;;;6.79;100.00;100763.31;5050398;28;20094;-67
2022/11/24 08:17:51;;;;;;;2.88;1.50;;;;;;;6.84;100.00;100776.03;5050971;28;20487;-67
2022/11/24 08:20:17;;;;;;;3.10;1.65;;;;;;;6.90;100.00;100778.00;5048681;28;20043;-68
2022/11/24 08:22:42;;;;;;;6.32;1.67;;;;;;;6.95;100.00;100775.66;5044278;28;20115;-68
2022/11/24 08:25:08;;;;;;;9.57;3.05;;;;;;;7.01;100.00;100784.72;5045292;28;20487;-68
2022/11/24 08:27:33;;;;;;;3.42;1.20;;;;;;;7.02;100.00;100787.22;5044758;28;20033;-68
2022/11/24 08:29:58;;;;;;;10.23;1.95;;;;;;;7.08;100.00;100787.50;5045109;28;20912;-68
2022/11/24 08:32:24;;;;;;;7.15;2.08;;;;;;;7.12;100.00;100802.88;5044676;28;20063;-69
2022/11/24 08:34:49;;;;;;;11.93;2.13;;;;;;;7.16;100.00;100793.59;5044493;28;20040;-69
2022/11/24 08:37:14;;;;;;;8.13;2.35;;;;;;;7.20;100.00;100805.50;5044630;28;20033;-68
2022/11/24 08:39:40;;;;;;;8.30;2.03;;;;;;;7.24;100.00;100809.44;5044847;28;20036;-68
2022/11/24 08:42:05;;;;;;;5.82;2.47;;;;;;;7.31;100.00;100811.38;5044382;28;20037;-69
2022/11/24 08:44:30;;;;;;;5.57;1.42;;;;;;;7.31;100.00;100814.88;5044537;28;20071;-69
2022/11/24 08:46:56;;;;;;;7.85;1.80;;;;;;;7.38;100.00;100817.63;5043270;28;20083;-67
2022/11/24 08:49:21;;;;;;;11.25;1.85;;;;;;;7.41;100.00;100822.59;5044144;28;20025;-68
2022/11/24 08:51:48;;;;;;;7.47;1.75;;;;;;;7.41;100.00;100817.28;5044103;28;20029;-68
2022/11/24 08:54:17;;;;;;;11.23;1.85;;;;;;;7.52;100.00;100827.50;5041443;28;20424;-68
2022/11/24 08:56:43;;;;;;;3.35;1.55;;;;;;;7.54;100.00;100828.13;5044360;28;20041;-68
2022/11/24 08:59:12;;;;;;;5.78;2.28;;;;;;;7.54;100.00;100829.97;5043869;28;20035;-68
2022/11/24 09:01:37;;;;;;;7.05;1.88;;;;;;;7.61;100.00;100841.53;5043316;28;20490;-69
2022/11/24 09:04:02;;;;;;;10.02;2.10;;;;;;;7.63;100.00;100837.69;5043681;28;20044;-70
2022/11/24 09:06:29;;;;;;;12.65;2.95;;;;;;;7.68;100.00;100851.25;5044004;28;20095;-71
2022/11/24 09:08:56;;;;;;;6.75;2.25;;;;;;;7.73;100.00;100857.84;5043861;28;20053;-69
2022/11/24 09:11:22;;;;;;;9.43;2.08;;;;;;;7.75;100.00;100856.66;5043213;28;20494;-70
2022/11/24 09:13:48;;;;;;;10.93;3.20;;;;;;;7.75;100.00;100854.00;5044022;28;20051;-72
2022/11/24 09:16:19;;;;;;;7.95;2.25;;;;;;;7.80;100.00;100859.63;5042067;28;20111;-74
2022/11/24 09:18:45;;;;;;;6.80;1.90;;;;;;;7.87;100.00;100867.72;5043544;28;20013;-71
2022/11/24 09:21:14;;;;;;;4.25;1.88;;;;;;;7.92;100.00;100870.66;5041778;28;20021;-71
2022/11/24 09:23:40;;;;;;;7.40;1.70;;;;;;;7.94;100.00;100875.78;5042062;28;20696;-73
2022/11/24 09:26:12;;;;;;;5.95;2.00;;;;;;;7.93;100.00;100868.81;5043474;28;20063;-72
2022/11/24 09:28:39;;;;;;;8.40;2.00;;;;;;;7.99;100.00;100874.25;5043366;28;20024;-72
2022/11/24 09:31:07;;;;;;;12.25;2.70;;;;;;;8.03;100.00;100882.69;5043720;28;20025;-72
2022/11/24 09:33:33;;;;;;;8.60;3.00;;;;;;;8.02;100.00;100873.06;5043342;28;20127;-73
2022/11/24 09:36:00;;;;;;;8.73;2.05;;;;;;;8.05;100.00;100889.47;5043499;28;20043;-73
2022/11/24 09:38:26;;;;;;;8.30;1.55;;;;;;;8.07;100.00;100884.81;5042302;28;20035;-73
2022/11/24 09:40:52;;;;;;;6.55;2.33;;;;;;;8.13;100.00;100892.06;5043642;28;20029;-73
2022/11/24 09:43:42;;;;;;;10.65;1.77;;;;;;;8.12;100.00;100887.75;5043545;28;20028;-73
2022/11/24 09:46:13;;;;;;;10.77;2.65;;;;;;;8.25;100.00;100896.91;5042416;28;20025;-73
2022/11/24 09:48:41;;;;;;;15.90;4.28;;;;;;;8.29;100.00;100900.88;5042499;28;20400;-73
2022/11/24 09:51:12;;;;;;;8.13;2.03;;;;;;;8.34;100.00;100907.31;5043315;28;20028;-72
2022/11/24 09:53:47;;;;;;;13.90;2.28;;;;;;;8.39;100.00;100916.56;5043572;28;20039;-72
2022/11/24 09:56:24;;;;;;;14.48;5.15;;;;;;;8.44;100.00;100920.38;5043653;28;20017;-72
2022/11/24 09:58:53;;;;;;;15.48;2.90;;;;;;;8.48;100.00;100920.81;5043498;28;20025;-73
2022/11/24 10:01:21;;;;;;;9.43;1.60;;;;;;;8.52;100.00;100924.78;5042503;28;20891;-72
2022/11/24 10:03:51;;;;;;;14.80;3.00;;;;;;;8.59;100.00;100938.16;5042383;28;20021;-72
2022/11/24 10:06:37;;;;;;;11.75;1.77;;;;;;;8.60;100.00;100930.03;5042322;28;20032;-72
2022/11/24 10:09:32;;;;;;;10.10;2.67;;;;;;;8.67;100.00;100940.72;5043225;28;20040;-71
2022/11/24 10:12:15;;;;;;;13.82;3.78;;;;;;;8.68;100.00;100950.38;5051158;28;20041;-72
2022/11/24 10:14:56;;;;;;;12.32;2.25;;;;;;;8.71;100.00;100955.34;5043040;28;20135;-72
2022/11/24 10:17:33;;;;;;;6.65;2.88;;;;;;;8.78;100.00;100949.09;5043657;28;20032;-72
2022/11/24 10:20:09;;;;;;;10.20;2.45;;;;;;;8.82;100.00;100956.72;5043382;28;20390;-72
2022/11/24 10:23:13;;;;;;;14.77;3.38;;;;;;;8.83;100.00;100947.72;5042581;28;20032;-71
2022/11/24 10:25:46;;;;;;;12.38;2.83;;;;;;;8.85;100.00;100951.84;5041505;28;20067;-73
2022/11/24 10:28:14;;;;;;;12.43;3.05;;;;;;;8.90;100.00;100961.94;5042689;28;20063;-72
2022/11/24 10:30:40;;;;;;;10.52;3.28;;;;;;;8.93;100.00;100954.44;5046890;28;20025;-72
2022/11/24 10:33:08;;;;;;;12.88;3.35;;;;;;;8.98;100.00;100954.69;5049012;28;20033;-72
2022/11/24 10:35:37;;;;;;;11.02;2.72;;;;;;;9.00;100.00;100962.50;5049252;28;20028;-72
2022/11/24 10:38:20;;;;;;;11.95;2.92;;;;;;;9.06;100.00;100960.94;5052809;28;20044;-72
2022/11/24 10:40:51;;;;;;;8.85;2.30;;;;;;;9.07;100.00;100960.75;5052752;28;20076;-72
2022/11/24 10:43:16;;;;;;;9.27;2.92;;;;;;;9.04;100.00;100961.13;5052854;28;20021;-72
2022/11/24 10:45:42;;;;;;;8.57;3.13;;;;;;;9.14;100.00;100980.31;5052832;28;20043;-72
2022/11/24 10:48:36;;;;;;;14.77;2.65;;;;;;;9.17;100.00;100981.78;5052370;28;20476;-72
2022/11/24 10:51:30;;;;;;;7.10;2.15;;;;;;;9.21;100.00;100983.03;5052356;28;20021;-72
2022/11/24 10:54:16;;;;;;;10.75;2.78;;;;;;;9.26;100.00;100972.66;5051315;28;20020;-72
2022/11/24 10:56:44;;;;;;;9.15;2.83;;;;;;;9.29;100.00;100972.28;5051987;28;20029;-72
2022/11/24 10:59:24;;;;;;;19.13;3.13;;;;;;;9.32;100.00;100977.25;5052671;28;20029;-72
2022/11/24 11:01:51;;;;;;;14.43;3.67;;;;;;;9.33;100.00;100976.25;5052382;28;20082;-72
2022/11/24 11:04:24;;;;;;;9.15;2.63;;;;;;;9.36;100.00;100978.53;5051138;28;20025;-72
2022/11/24 11:06:50;;;;;;;11.35;3.30;;;;;;;9.34;100.00;100969.91;5052355;28;20063;-72
2022/11/24 11:09:20;;;;;;;10.80;3.47;;;;;;;9.47;100.00;100973.75;5052319;28;20066;-72
2022/11/24 11:11:47;;;;;;;9.27;2.03;;;;;;;9.47;100.00;100974.56;5052414;28;20029;-72
2022/11/24 11:14:28;;;;;;;9.55;2.22;;;;;;;9.51;100.00;100978.53;5052326;28;20025;-72
2022/11/24 11:16:56;;;;;;;12.43;2.38;;;;;;;9.54;100.00;100980.00;5050972;28;20415;-72
2022/11/24 11:19:39;;;;;;;10.68;2.33;;;;;;;9.56;100.00;100972.63;5050963;28;20025;-72
2022/11/24 11:22:11;;;;;;;12.38;2.88;;;;;;;9.62;100.00;100969.22;5051908;28;20075;-72
2022/11/24 11:24:41;;;;;;;10.02;3.20;;;;;;;9.63;100.00;100974.34;5051967;28;20040;-72
2022/11/24 11:27:17;;;;;;;11.40;2.10;;;;;;;9.69;100.00;100980.75;5052169;28;20033;-72